createdAt,value
2017-05-11T00:00:54.977Z,97.88
2017-05-11T00:02:07.524Z,97.69
2017-05-11T00:03:20.041Z,97.5
2017-05-11T00:04:32.573Z,97.5
2017-05-11T00:05:45.118Z,97.97
2017-05-11T00:06:57.354Z,97.97
2017-05-11T00:08:09.882Z,97.54
2017-05-11T00:09:22.108Z,97.78
2017-05-11T00:10:34.625Z,97.54
2017-05-11T00:11:47.123Z,97.97
2017-05-11T00:12:59.663Z,97.54
2017-05-11T00:14:12.214Z,97.45
2017-05-11T00:15:24.754Z,97.73
2017-05-11T00:16:37.310Z,98.11
2017-05-11T00:17:49.846Z,98.11
2017-05-11T00:19:02.402Z,97.45
2017-05-11T00:20:15.235Z,97.83
2017-05-11T00:21:27.792Z,97.73
2017-05-11T00:22:40.326Z,98.11
2017-05-11T00:23:52.250Z,97.73
2017-05-11T00:25:04.797Z,98.11
2017-05-11T00:26:17.313Z,98.02
2017-05-11T00:27:29.543Z,97.83
2017-05-11T00:28:41.784Z,97.73
2017-05-11T00:29:54.336Z,97.73
2017-05-11T00:31:06.858Z,97.54
2017-05-11T00:32:19.426Z,97.64
2017-05-11T00:33:31.675Z,98.02
2017-05-11T00:34:44.218Z,98.02
2017-05-11T00:35:56.739Z,98.11
2017-05-11T00:37:09.278Z,97.92
2017-05-11T00:38:21.784Z,98.11
2017-05-11T00:39:34.294Z,98.02
2017-05-11T00:40:46.798Z,98.39
2017-05-11T00:41:59.318Z,98.3
2017-05-11T00:43:11.893Z,98.3
2017-05-11T00:44:24.439Z,98.49
2017-05-11T00:45:36.977Z,98.58
2017-05-11T00:46:49.493Z,98.21
2017-05-11T00:48:01.678Z,98.21
2017-05-11T00:49:13.590Z,97.83
2017-05-11T00:50:26.132Z,98.49
2017-05-11T00:51:38.664Z,98.11
2017-05-11T00:52:51.177Z,98.58
2017-05-11T00:54:03.724Z,98.49
2017-05-11T00:55:16.248Z,98.49
2017-05-11T00:56:28.774Z,98.11
2017-05-11T00:57:41.294Z,98.3
2017-05-11T00:58:53.804Z,98.3
2017-05-11T01:00:06.032Z,98.39
2017-05-11T01:01:18.558Z,98.49
2017-05-11T01:02:31.126Z,98.02
2017-05-11T01:03:43.367Z,98.21
2017-05-11T01:04:55.915Z,98.02
2017-05-11T01:06:08.429Z,98.49
2017-05-11T01:07:20.632Z,98.77
2017-05-11T01:08:33.161Z,98.11
2017-05-11T01:09:45.699Z,98.3
2017-05-11T01:10:57.941Z,99.25
2017-05-11T01:12:10.469Z,98.58
2017-05-11T01:13:22.687Z,98.58
2017-05-11T01:14:35.532Z,99.25
2017-05-11T01:15:48.075Z,98.49
2017-05-11T01:17:00.592Z,99.2
2017-05-11T01:18:13.116Z,98.44
2017-05-11T01:19:25.635Z,99.1
2017-05-11T01:20:38.137Z,99.2
2017-05-11T01:21:50.658Z,98.77
2017-05-11T01:23:03.175Z,99.06
2017-05-11T01:24:15.728Z,98.96
2017-05-11T01:25:27.972Z,98.96
2017-05-11T01:26:40.210Z,99.2
2017-05-11T01:27:52.733Z,99.01
2017-05-11T01:29:05.254Z,99.01
2017-05-11T01:30:17.784Z,98.91
2017-05-11T01:31:30.318Z,99.1
2017-05-11T01:32:42.265Z,99.2
2017-05-11T01:33:54.819Z,99.01
2017-05-11T01:35:07.041Z,98.82
2017-05-11T01:36:19.589Z,98.91
2017-05-11T01:37:32.151Z,98.82
2017-05-11T01:38:44.668Z,99.2
2017-05-11T01:39:57.201Z,99.1
2017-05-11T01:41:09.423Z,98.91
2017-05-11T01:42:21.944Z,99.2
2017-05-11T01:43:34.460Z,98.82
2017-05-11T01:44:46.673Z,99.1
2017-05-11T01:45:58.879Z,99.1
2017-05-11T01:47:11.628Z,99.39
2017-05-11T01:48:24.189Z,98.91
2017-05-11T01:49:36.710Z,99.77
2017-05-11T01:50:49.256Z,99.48
2017-05-11T01:52:01.465Z,99.86
2017-05-11T01:53:14.002Z,99.67
2017-05-11T01:54:26.548Z,99.86
2017-05-11T01:55:39.119Z,99.01
2017-05-11T01:56:51.636Z,99.77
2017-05-11T01:58:04.177Z,99.86
2017-05-11T01:59:16.402Z,99.48
2017-05-11T02:00:28.920Z,99.48
2017-05-11T02:01:41.419Z,99.58
2017-05-11T02:02:53.966Z,99.77
2017-05-11T02:04:06.508Z,99.67
2017-05-11T02:05:19.018Z,99.39
2017-05-11T02:06:31.557Z,99.39
2017-05-11T02:07:44.097Z,99.48
2017-05-11T02:08:56.624Z,99.48
2017-05-11T02:10:08.866Z,99.39
2017-05-11T02:11:21.386Z,99.48
2017-05-11T02:12:33.916Z,99.48
2017-05-11T02:13:46.449Z,99.58
2017-05-11T02:14:58.659Z,99.48
2017-05-11T02:16:11.202Z,99.77
2017-05-11T02:17:23.741Z,99.86
2017-05-11T02:18:36.284Z,99.58
2017-05-11T02:19:48.787Z,99.99
2017-05-11T02:21:01.004Z,99.96
2017-05-11T02:22:13.250Z,99.99
2017-05-11T02:23:25.771Z,99.86
2017-05-11T02:24:38.351Z,99.96
2017-05-11T02:25:50.866Z,99.77
2017-05-11T02:27:02.480Z,99.99
2017-05-11T02:28:15.029Z,99.99
2017-05-11T02:29:27.560Z,99.99
2017-05-11T02:30:40.372Z,99.99
2017-05-11T02:31:52.880Z,99.99
2017-05-11T02:33:05.442Z,99.86
2017-05-11T02:34:17.963Z,99.99
2017-05-11T02:35:30.480Z,99.86
2017-05-11T02:36:42.398Z,99.86
2017-05-11T02:37:54.904Z,99.86
2017-05-11T02:39:07.422Z,99.86
2017-05-11T02:40:19.947Z,99.77
2017-05-11T02:41:32.472Z,99.67
2017-05-11T02:42:44.386Z,99.67
2017-05-11T02:43:56.926Z,99.77
2017-05-11T02:45:09.136Z,99.77
2017-05-11T02:46:21.647Z,99.77
2017-05-11T02:47:34.190Z,99.77
2017-05-11T02:48:46.742Z,99.77
2017-05-11T02:49:59.260Z,99.99
2017-05-11T02:51:11.785Z,99.99
2017-05-11T02:52:24.281Z,99.67
2017-05-11T02:53:36.800Z,99.99
2017-05-11T02:54:49.322Z,99.77
2017-05-11T02:56:01.858Z,99.99
2017-05-11T02:57:14.386Z,99.86
2017-05-11T02:58:26.912Z,99.86
2017-05-11T02:59:39.150Z,99.99
2017-05-11T03:00:51.665Z,99.96
2017-05-11T03:02:03.890Z,99.99
2017-05-11T03:03:16.394Z,99.99
2017-05-11T03:04:28.907Z,99.99
2017-05-11T03:05:41.435Z,99.99
2017-05-11T03:06:53.947Z,99.99
2017-05-11T03:08:06.177Z,99.86
2017-05-11T03:09:18.973Z,99.99
2017-05-11T03:10:31.508Z,99.99
2017-05-11T03:11:44.062Z,99.99
2017-05-11T03:12:56.599Z,99.99
2017-05-11T03:14:08.832Z,99.67
2017-05-11T03:15:21.371Z,99.86
2017-05-11T03:16:33.887Z,99.86
2017-05-11T03:17:46.112Z,99.67
2017-05-11T03:18:58.631Z,99.86
2017-05-11T03:20:11.183Z,99.99
2017-05-11T03:21:23.707Z,99.99
2017-05-11T03:22:35.979Z,99.99
2017-05-11T03:23:48.224Z,99.99
2017-05-11T03:25:00.745Z,99.99
2017-05-11T03:26:12.962Z,99.99
2017-05-11T03:27:25.479Z,99.99
2017-05-11T03:28:38.021Z,99.99
2017-05-11T03:29:50.553Z,99.99
2017-05-11T03:31:02.813Z,99.99
2017-05-11T03:32:15.319Z,99.96
2017-05-11T03:33:27.560Z,99.99
2017-05-11T03:34:40.104Z,99.99
2017-05-11T03:35:52.632Z,99.99
2017-05-11T03:37:04.850Z,99.99
2017-05-11T03:38:17.373Z,99.99
2017-05-11T03:39:29.910Z,99.99
2017-05-11T03:40:42.422Z,99.99
2017-05-11T03:41:54.955Z,99.99
2017-05-11T03:43:07.510Z,99.99
2017-05-11T03:44:20.044Z,99.99
2017-05-11T03:45:32.594Z,99.99
2017-05-11T03:46:45.136Z,99.99
2017-05-11T03:47:57.643Z,99.99
2017-05-11T03:49:09.905Z,99.99
2017-05-11T03:50:22.448Z,99.99
2017-05-11T03:51:34.979Z,99.99
2017-05-11T03:52:47.818Z,99.99
2017-05-11T03:53:59.765Z,99.99
2017-05-11T03:55:12.265Z,99.99
2017-05-11T03:56:24.777Z,99.99
2017-05-11T03:57:37.306Z,99.99
2017-05-11T03:58:49.852Z,99.99
2017-05-11T04:00:02.365Z,99.99
2017-05-11T04:01:14.875Z,99.99
2017-05-11T04:02:27.411Z,99.99
2017-05-11T04:03:39.940Z,99.99
2017-05-11T04:04:52.502Z,99.99
2017-05-11T04:06:05.056Z,99.99
2017-05-11T04:07:17.301Z,99.99
2017-05-11T04:08:30.145Z,99.99
2017-05-11T04:09:42.707Z,99.99
2017-05-11T04:10:55.232Z,99.99
2017-05-11T04:12:07.456Z,99.99
2017-05-11T04:13:20.006Z,99.99
2017-05-11T04:14:32.544Z,99.99
2017-05-11T04:15:44.766Z,99.99
2017-05-11T04:16:57.316Z,99.99
2017-05-11T04:18:09.232Z,99.99
2017-05-11T04:19:22.057Z,99.99
2017-05-11T04:20:34.570Z,99.99
2017-05-11T04:21:47.099Z,99.99
2017-05-11T04:22:59.599Z,99.99
2017-05-11T04:24:11.820Z,99.99
2017-05-11T04:25:24.312Z,99.99
2017-05-11T04:26:36.835Z,99.53
2017-05-11T04:27:49.075Z,99.99
2017-05-11T04:29:01.300Z,99.63
2017-05-11T04:30:13.541Z,99.91
2017-05-11T04:31:26.092Z,99.91
2017-05-11T04:32:38.637Z,99.63
2017-05-11T04:33:50.883Z,99.91
2017-05-11T04:35:03.378Z,99.91
2017-05-11T04:36:15.593Z,99.91
2017-05-11T04:37:28.100Z,99.72
2017-05-11T04:38:40.623Z,99.72
2017-05-11T04:39:53.161Z,99.68
2017-05-11T04:41:05.410Z,99.96
2017-05-11T04:42:17.908Z,99.58
2017-05-11T04:43:30.118Z,99.68
2017-05-11T04:44:42.625Z,99.49
2017-05-11T04:45:54.859Z,99.58
2017-05-11T04:47:07.367Z,99.77
2017-05-11T04:48:19.637Z,99.77
2017-05-11T04:49:32.157Z,99.68
2017-05-11T04:50:44.697Z,99.87
2017-05-11T04:51:57.489Z,99.68
2017-05-11T04:53:10.060Z,99.96
2017-05-11T04:54:22.285Z,99.96
2017-05-11T04:55:34.801Z,99.87
2017-05-11T04:56:47.007Z,98.82
2017-05-11T04:57:59.511Z,99.01
2017-05-11T04:59:12.068Z,99.44
2017-05-11T05:00:24.614Z,99.35
2017-05-11T05:01:37.160Z,99.73
2017-05-11T05:02:49.682Z,99.16
2017-05-11T05:04:02.235Z,99.16
2017-05-11T05:05:14.757Z,99.44
2017-05-11T05:06:26.993Z,99.54
2017-05-11T05:07:39.540Z,99.44
2017-05-11T05:08:52.064Z,99.06
2017-05-11T05:10:04.586Z,99.06
2017-05-11T05:11:16.849Z,99.16
2017-05-11T05:12:29.077Z,98.78
2017-05-11T05:13:41.573Z,98.87
2017-05-11T05:14:53.811Z,99.06
2017-05-11T05:16:06.019Z,98.54
2017-05-11T05:17:18.239Z,97.97
2017-05-11T05:18:30.482Z,98.26
2017-05-11T05:19:43.024Z,98.45
2017-05-11T05:20:55.575Z,98.07
2017-05-11T05:22:08.103Z,98.26
2017-05-11T05:23:20.307Z,98.16
2017-05-11T05:24:33.090Z,98.26
2017-05-11T05:25:45.658Z,97.5
2017-05-11T05:26:58.204Z,97.6
2017-05-11T05:28:10.446Z,98.35
2017-05-11T05:29:22.988Z,98.59
2017-05-11T05:30:35.519Z,97.55
2017-05-11T05:31:47.737Z,97.64
2017-05-11T05:32:59.977Z,97.83
2017-05-11T05:34:12.505Z,97.74
2017-05-11T05:35:24.725Z,97.83
2017-05-11T05:36:37.246Z,97.92
2017-05-11T05:37:49.758Z,96.98
2017-05-11T05:39:02.319Z,97.17
2017-05-11T05:40:14.562Z,97.17
2017-05-11T05:41:27.126Z,97.36
2017-05-11T05:42:39.643Z,97.17
2017-05-11T05:43:52.171Z,96.98
2017-05-11T05:45:04.438Z,97.5
2017-05-11T05:46:16.988Z,96.55
2017-05-11T05:47:29.529Z,96.55
2017-05-11T05:48:42.076Z,97.22
2017-05-11T05:49:54.625Z,95.7
2017-05-11T05:51:07.154Z,95.89
2017-05-11T05:52:19.723Z,95.6
2017-05-11T05:53:32.281Z,95.89
2017-05-11T05:54:44.514Z,95.22
2017-05-11T05:55:57.022Z,95.89
2017-05-11T05:57:09.567Z,95.98
2017-05-11T05:58:21.768Z,95.79
2017-05-11T05:59:34.288Z,95.84
2017-05-11T06:00:46.533Z,95.46
2017-05-11T06:01:59.077Z,95.46
2017-05-11T06:03:11.609Z,95.36
2017-05-11T06:04:23.844Z,94.7
2017-05-11T06:05:36.418Z,94.13
2017-05-11T06:06:48.964Z,94.13
2017-05-11T06:08:01.257Z,93.75
2017-05-11T06:09:13.794Z,92.99
2017-05-11T06:10:26.323Z,92.22
2017-05-11T06:11:38.277Z,91.85
2017-05-11T06:12:50.827Z,92.18
2017-05-11T06:14:03.068Z,92.84
2017-05-11T06:15:15.311Z,92.08
2017-05-11T06:16:27.858Z,92.46
2017-05-11T06:17:40.409Z,91.42
2017-05-11T06:18:53.256Z,91.89
2017-05-11T06:20:05.505Z,91.65
2017-05-11T06:21:17.719Z,91.56
2017-05-11T06:22:30.284Z,91.08
2017-05-11T06:23:42.812Z,91.13
2017-05-11T06:24:54.760Z,90.84
2017-05-11T06:26:07.295Z,90.27
2017-05-11T06:27:19.245Z,89.26
2017-05-11T06:28:31.798Z,89.26
2017-05-11T06:29:44.359Z,89.03
2017-05-11T06:30:56.910Z,87.21
2017-05-11T06:32:09.488Z,86.78
2017-05-11T06:33:22.029Z,87.16
2017-05-11T06:34:34.571Z,85.87
2017-05-11T06:35:47.138Z,84.53
2017-05-11T06:36:59.650Z,84.48
2017-05-11T06:38:12.193Z,85.44
2017-05-11T06:39:24.433Z,84.72
2017-05-11T06:40:36.971Z,84.52
2017-05-11T06:41:49.171Z,80.27
2017-05-11T06:43:01.417Z,81.84
2017-05-11T06:44:13.642Z,80.5
2017-05-11T06:45:26.183Z,78.81
2017-05-11T06:46:38.757Z,78.43
2017-05-11T06:47:51.302Z,76.65
2017-05-11T06:49:03.826Z,75.16
2017-05-11T06:50:16.400Z,73.05
2017-05-11T06:51:28.951Z,73.09
2017-05-11T06:52:41.509Z,71.84
2017-05-11T06:53:53.756Z,69.58
2017-05-11T06:55:06.325Z,69.48
2017-05-11T06:56:18.875Z,68.66
2017-05-11T06:57:30.822Z,68.08
2017-05-11T06:58:43.397Z,66.55
2017-05-11T06:59:55.960Z,66
2017-05-11T07:01:08.531Z,65.23
2017-05-11T07:02:20.731Z,65.14
2017-05-11T07:03:33.279Z,64.98
2017-05-11T07:04:45.849Z,63.92
2017-05-11T07:05:58.072Z,63.45
2017-05-11T07:07:10.042Z,60.69
2017-05-11T07:08:21.978Z,59.73
2017-05-11T07:09:34.502Z,60.5
2017-05-11T07:10:46.753Z,60.24
2017-05-11T07:11:59.294Z,58.13
2017-05-11T07:13:11.856Z,57.07
2017-05-11T07:14:24.361Z,56.3
2017-05-11T07:15:36.910Z,58.42
2017-05-11T07:16:49.160Z,58.8
2017-05-11T07:18:01.724Z,57.65
2017-05-11T07:19:14.273Z,56.4
2017-05-11T07:20:26.522Z,57.17
2017-05-11T07:21:39.091Z,56.68
2017-05-11T07:22:51.355Z,57
2017-05-11T07:24:03.608Z,56.11
2017-05-11T07:25:15.544Z,55.94
2017-05-11T07:26:27.796Z,54.99
2017-05-11T07:27:40.345Z,54.31
2017-05-11T07:28:52.908Z,55.27
2017-05-11T07:30:05.155Z,56.33
2017-05-11T07:31:17.099Z,54.22
2017-05-11T07:32:29.324Z,55.66
2017-05-11T07:33:41.867Z,54.99
2017-05-11T07:34:54.396Z,55.37
2017-05-11T07:36:06.617Z,55.27
2017-05-11T07:37:19.163Z,55.88
2017-05-11T07:38:31.700Z,56.16
2017-05-11T07:39:44.251Z,55.4
2017-05-11T07:40:56.807Z,53.11
2017-05-11T07:42:09.341Z,54.17
2017-05-11T07:43:21.585Z,52.73
2017-05-11T07:44:34.135Z,52.42
2017-05-11T07:45:46.402Z,53.5
2017-05-11T07:46:58.607Z,53.59
2017-05-11T07:48:11.119Z,53.5
2017-05-11T07:49:23.373Z,53.05
2017-05-11T07:50:35.610Z,52.75
2017-05-11T07:51:48.159Z,52.37
2017-05-11T07:53:00.703Z,52.18
2017-05-11T07:54:13.262Z,51.7
2017-05-11T07:55:25.506Z,50.76
2017-05-11T07:56:38.064Z,50.09
2017-05-11T07:57:50.599Z,50.09
2017-05-11T07:59:02.864Z,50.47
2017-05-11T08:00:15.405Z,50.21
2017-05-11T08:01:27.678Z,48.57
2017-05-11T08:02:40.247Z,49.05
2017-05-11T08:03:52.814Z,48.95
2017-05-11T08:05:05.047Z,49.05
2017-05-11T08:06:17.019Z,48.4
2017-05-11T08:07:29.289Z,47.7
2017-05-11T08:08:41.836Z,48.18
2017-05-11T08:09:54.130Z,49.41
2017-05-11T08:11:06.353Z,49.79
2017-05-11T08:12:18.661Z,49.34
2017-05-11T08:13:31.211Z,48.25
2017-05-11T08:14:43.780Z,49.22
2017-05-11T08:15:56.086Z,49.6
2017-05-11T08:17:08.652Z,50.76
2017-05-11T08:18:21.205Z,51.05
2017-05-11T08:19:33.164Z,50.18
2017-05-11T08:20:45.720Z,49.77
2017-05-11T08:21:57.379Z,50.73
2017-05-11T08:23:09.632Z,50.81
2017-05-11T08:24:22.222Z,50.9
2017-05-11T08:25:34.504Z,50.9
2017-05-11T08:26:46.722Z,51.17
2017-05-11T08:27:59.286Z,50.78
2017-05-11T08:29:11.837Z,51.17
2017-05-11T08:30:24.100Z,52
2017-05-11T08:31:36.649Z,52.77
2017-05-11T08:32:48.917Z,54.6
2017-05-11T08:34:01.471Z,54.12
2017-05-11T08:35:13.982Z,53.16
2017-05-11T08:36:25.891Z,52.55
2017-05-11T08:37:38.167Z,53.49
2017-05-11T08:38:50.708Z,55.02
2017-05-11T08:40:03.247Z,55.6
2017-05-11T08:41:15.791Z,54.35
2017-05-11T08:42:28.064Z,55.19
2017-05-11T08:43:40.631Z,55.47
2017-05-11T08:44:53.190Z,55.38
2017-05-11T08:46:05.483Z,55.47
2017-05-11T08:47:17.743Z,57.01
2017-05-11T08:48:30.293Z,57.08
2017-05-11T08:49:42.843Z,56.89
2017-05-11T08:50:55.087Z,57.28
2017-05-11T08:52:07.402Z,58.23
2017-05-11T08:53:19.334Z,58.04
2017-05-11T08:54:31.597Z,56.6
2017-05-11T08:55:44.171Z,56.22
2017-05-11T08:56:56.439Z,57.08
2017-05-11T08:58:08.363Z,57.95
2017-05-11T08:59:20.603Z,58.14
2017-05-11T09:00:33.177Z,59.09
2017-05-11T09:01:45.707Z,58.42
2017-05-11T09:02:58.277Z,57.95
2017-05-11T09:04:10.539Z,57.85
2017-05-11T09:05:22.769Z,58.23
2017-05-11T09:06:35.024Z,57.65
2017-05-11T09:07:47.581Z,58.23
2017-05-11T09:09:00.148Z,58.04
2017-05-11T09:10:12.694Z,58.42
2017-05-11T09:11:25.247Z,58.33
2017-05-11T09:12:37.757Z,58.52
2017-05-11T09:13:50.303Z,58.07
2017-05-11T09:15:02.548Z,57.28
2017-05-11T09:16:15.070Z,58.26
2017-05-11T09:17:26.999Z,58.36
2017-05-11T09:18:39.569Z,57.21
2017-05-11T09:19:52.111Z,58.36
2017-05-11T09:21:04.383Z,57.4
2017-05-11T09:22:16.935Z,56.34
2017-05-11T09:23:28.899Z,57.01
2017-05-11T09:24:41.454Z,55.86
2017-05-11T09:25:54.000Z,55.47
2017-05-11T09:27:06.562Z,55.67
2017-05-11T09:28:18.507Z,55.96
2017-05-11T09:29:30.753Z,56.34
2017-05-11T09:30:43.325Z,56.27
2017-05-11T09:31:55.568Z,57.43
2017-05-11T09:33:08.119Z,58
2017-05-11T09:34:19.773Z,57.04
2017-05-11T09:35:32.030Z,56.37
2017-05-11T09:36:44.281Z,56.08
2017-05-11T09:37:56.822Z,56.49
2017-05-11T09:39:09.417Z,55.34
2017-05-11T09:40:21.922Z,55.53
2017-05-11T09:41:34.492Z,55.44
2017-05-11T09:42:47.030Z,55.56
2017-05-11T09:43:59.608Z,54.99
2017-05-11T09:45:12.163Z,54.12
2017-05-11T09:46:24.721Z,54.41
2017-05-11T09:47:36.988Z,53.25
2017-05-11T09:48:49.284Z,52.99
2017-05-11T09:50:01.817Z,54.24
2017-05-11T09:51:14.063Z,54.34
2017-05-11T09:52:26.601Z,54.05
2017-05-11T09:53:39.176Z,53.4
2017-05-11T09:54:51.717Z,53.59
2017-05-11T09:56:04.289Z,52.06
2017-05-11T09:57:16.867Z,51.7
2017-05-11T09:58:29.139Z,51.31
2017-05-11T09:59:41.681Z,50.76
2017-05-11T10:00:53.943Z,50.95
2017-05-11T10:02:05.866Z,51.07
2017-05-11T10:03:18.088Z,50.69
2017-05-11T10:04:30.691Z,50.78
2017-05-11T10:05:42.960Z,50.49
2017-05-11T10:06:55.211Z,50.42
2017-05-11T10:08:07.494Z,49.94
2017-05-11T10:09:20.077Z,47.94
2017-05-11T10:10:32.318Z,47.17
2017-05-11T10:11:44.568Z,45.94
2017-05-11T10:12:57.111Z,45.26
2017-05-11T10:14:09.335Z,45
2017-05-11T10:15:20.970Z,45.09
2017-05-11T10:16:33.551Z,45.5
2017-05-11T10:17:46.397Z,45.31
2017-05-11T10:18:58.962Z,44.75
2017-05-11T10:20:11.511Z,45.06
2017-05-11T10:21:24.082Z,44.19
2017-05-11T10:22:36.370Z,43.82
2017-05-11T10:23:48.915Z,43.34
2017-05-11T10:25:01.466Z,42.97
2017-05-11T10:26:13.432Z,41.52
2017-05-11T10:27:25.704Z,41.64
2017-05-11T10:28:38.232Z,41.27
2017-05-11T10:29:50.478Z,42.34
2017-05-11T10:31:03.041Z,42.85
2017-05-11T10:32:15.295Z,40.33
2017-05-11T10:33:27.233Z,39.76
2017-05-11T10:34:39.783Z,39.76
2017-05-11T10:35:52.361Z,40.34
2017-05-11T10:37:04.924Z,40.05
2017-05-11T10:38:17.517Z,39.69
2017-05-11T10:39:30.063Z,39.22
2017-05-11T10:40:42.608Z,38.37
2017-05-11T10:41:54.861Z,38.39
2017-05-11T10:43:07.433Z,37.6
2017-05-11T10:44:19.696Z,36.75
2017-05-11T10:45:31.955Z,37.04
2017-05-11T10:46:44.524Z,35.99
2017-05-11T10:47:57.091Z,35.97
2017-05-11T10:49:09.359Z,36.87
2017-05-11T10:50:21.926Z,35.89
2017-05-11T10:51:34.182Z,35.7
2017-05-11T10:52:46.729Z,35.81
2017-05-11T10:53:59.291Z,35.34
2017-05-11T10:55:11.245Z,34.86
2017-05-11T10:56:23.834Z,36.12
2017-05-11T10:57:36.402Z,35.44
2017-05-11T10:58:48.958Z,34.19
2017-05-11T11:00:01.530Z,34.39
2017-05-11T11:01:13.839Z,34.58
2017-05-11T11:02:26.098Z,33.61
2017-05-11T11:03:38.106Z,33.8
2017-05-11T11:04:50.656Z,34.29
2017-05-11T11:06:03.226Z,34.97
2017-05-11T11:07:15.803Z,34.76
2017-05-11T11:08:28.377Z,34.97
2017-05-11T11:09:40.946Z,33.61
2017-05-11T11:10:53.536Z,33.31
2017-05-11T11:12:05.503Z,33.9
2017-05-11T11:13:17.783Z,34.31
2017-05-11T11:14:30.056Z,35.36
2017-05-11T11:15:42.316Z,35.46
2017-05-11T11:16:54.561Z,34.97
2017-05-11T11:18:07.107Z,35.26
2017-05-11T11:19:19.628Z,34.29
2017-05-11T11:20:32.161Z,34.4
2017-05-11T11:21:44.418Z,34.32
2017-05-11T11:22:56.691Z,33.54
2017-05-11T11:24:09.236Z,33.26
2017-05-11T11:25:21.510Z,33.17
2017-05-11T11:26:34.082Z,31.52
2017-05-11T11:27:46.731Z,32.21
2017-05-11T11:28:59.302Z,31.82
2017-05-11T11:30:11.894Z,31.82
2017-05-11T11:31:24.187Z,32.99
2017-05-11T11:32:36.443Z,33.38
2017-05-11T11:33:49.040Z,33.09
2017-05-11T11:35:01.611Z,32.42
2017-05-11T11:36:14.173Z,30.96
2017-05-11T11:37:26.449Z,30.96
2017-05-11T11:38:38.995Z,32.31
2017-05-11T11:39:51.542Z,33.26
2017-05-11T11:41:03.813Z,33.58
2017-05-11T11:42:16.385Z,33.38
2017-05-11T11:43:28.628Z,33.97
2017-05-11T11:44:41.195Z,32.99
2017-05-11T11:45:53.737Z,32.13
2017-05-11T11:47:06.309Z,30.58
2017-05-11T11:48:18.880Z,30.97
2017-05-11T11:49:30.834Z,31.56
2017-05-11T11:50:43.380Z,30.96
2017-05-11T11:51:55.957Z,31.74
2017-05-11T11:53:07.663Z,30.58
2017-05-11T11:54:19.921Z,30.86
2017-05-11T11:55:32.505Z,31.74
2017-05-11T11:56:44.463Z,31.25
2017-05-11T11:57:56.734Z,31.05
2017-05-11T11:59:09.368Z,30.37
2017-05-11T12:00:21.351Z,30.84
2017-05-11T12:01:33.914Z,31.52
2017-05-11T12:02:46.467Z,30.84
2017-05-11T12:03:58.110Z,30.96
2017-05-11T12:05:10.383Z,31.93
2017-05-11T12:06:22.654Z,32.42
2017-05-11T12:07:35.223Z,31.64
2017-05-11T12:08:47.813Z,31.15
2017-05-11T12:10:00.410Z,31.46
2017-05-11T12:11:12.678Z,30.38
2017-05-11T12:12:25.231Z,30.59
2017-05-11T12:13:37.802Z,29.71
2017-05-11T12:14:50.352Z,30.49
2017-05-11T12:16:02.936Z,30.51
2017-05-11T12:17:15.464Z,29.83
2017-05-11T12:18:27.744Z,31
2017-05-11T12:19:40.284Z,31
2017-05-11T12:20:52.556Z,30.41
2017-05-11T12:22:04.816Z,30.51
2017-05-11T12:23:16.776Z,30.41
2017-05-11T12:24:28.736Z,30.51
2017-05-11T12:25:41.306Z,29.83
2017-05-11T12:26:53.903Z,29.81
2017-05-11T12:28:06.477Z,29.71
2017-05-11T12:29:19.053Z,30.2
2017-05-11T12:30:31.639Z,29.71
2017-05-11T12:31:44.212Z,29.52
2017-05-11T12:32:56.531Z,30.1
2017-05-11T12:34:08.807Z,30.98
2017-05-11T12:35:21.375Z,30.97
2017-05-11T12:36:33.949Z,30.77
2017-05-11T12:37:46.487Z,30.4
2017-05-11T12:38:58.736Z,30.88
2017-05-11T12:40:10.433Z,31.18
2017-05-11T12:41:23.012Z,31.87
2017-05-11T12:42:35.582Z,31.67
2017-05-11T12:43:48.176Z,31.38
2017-05-11T12:45:00.474Z,30.98
2017-05-11T12:46:13.046Z,31.1
2017-05-11T12:47:25.587Z,30.51
2017-05-11T12:48:38.151Z,30.9
2017-05-11T12:49:50.696Z,30.98
2017-05-11T12:51:02.949Z,31.08
2017-05-11T12:52:15.250Z,30.3
2017-05-11T12:53:27.846Z,30.4
2017-05-11T12:54:40.413Z,30.1
2017-05-11T12:55:52.959Z,30.51
2017-05-11T12:57:04.922Z,29.63
2017-05-11T12:58:16.921Z,29.93
2017-05-11T12:59:29.492Z,29.83
2017-05-11T13:00:42.071Z,29.45
2017-05-11T13:01:54.656Z,29.16
2017-05-11T13:03:06.630Z,28.77
2017-05-11T13:04:19.183Z,28.97
2017-05-11T13:05:31.479Z,29.25
2017-05-11T13:06:44.047Z,29.35
2017-05-11T13:07:56.310Z,29.06
2017-05-11T13:09:08.881Z,28.77
2017-05-11T13:10:21.113Z,28.96
2017-05-11T13:11:33.376Z,29.74
2017-05-11T13:12:45.955Z,29.64
2017-05-11T13:13:58.214Z,30.22
2017-05-11T13:15:10.770Z,29.93
2017-05-11T13:16:22.435Z,29.93
2017-05-11T13:17:34.714Z,29.73
2017-05-11T13:18:47.256Z,30.4
2017-05-11T13:19:59.826Z,30.49
2017-05-11T13:21:12.375Z,30.49
2017-05-11T13:22:24.640Z,30.12
2017-05-11T13:23:37.211Z,30.3
2017-05-11T13:24:49.781Z,29.9
2017-05-11T13:26:02.049Z,30.48
2017-05-11T13:27:14.581Z,30.37
2017-05-11T13:28:27.116Z,30.57
2017-05-11T13:29:39.674Z,29.98
2017-05-11T13:30:52.232Z,30.57
2017-05-11T13:32:04.483Z,31.05
2017-05-11T13:33:16.753Z,30.27
2017-05-11T13:34:29.320Z,31.64
2017-05-11T13:35:41.877Z,31.33
2017-05-11T13:36:54.490Z,31.13
2017-05-11T13:38:07.078Z,30.44
2017-05-11T13:39:19.294Z,30.63
2017-05-11T13:40:31.532Z,30.34
2017-05-11T13:41:43.801Z,31.02
2017-05-11T13:42:55.774Z,31.4
2017-05-11T13:44:08.587Z,31.69
2017-05-11T13:45:21.143Z,31.8
2017-05-11T13:46:33.440Z,31.6
2017-05-11T13:47:45.976Z,30.73
2017-05-11T13:48:58.233Z,30.54
2017-05-11T13:50:10.500Z,29.95
2017-05-11T13:51:23.096Z,30.05
2017-05-11T13:52:35.620Z,30.44
2017-05-11T13:53:47.891Z,31.4
2017-05-11T13:55:00.463Z,30.81
2017-05-11T13:56:13.022Z,30.63
2017-05-11T13:57:25.301Z,31.9
2017-05-11T13:58:37.876Z,31.22
2017-05-11T13:59:50.418Z,30.93
2017-05-11T14:01:02.693Z,31.22
2017-05-11T14:02:15.284Z,31.2
2017-05-11T14:03:27.848Z,30.63
2017-05-11T14:04:40.430Z,30.73
2017-05-11T14:05:53.014Z,31.9
2017-05-11T14:07:05.561Z,31.79
2017-05-11T14:08:18.089Z,31.98
2017-05-11T14:09:30.663Z,31.98
2017-05-11T14:10:43.231Z,32.37
2017-05-11T14:11:55.802Z,31.79
2017-05-11T14:13:08.053Z,31.9
2017-05-11T14:14:20.618Z,31.6
2017-05-11T14:15:33.157Z,31.12
2017-05-11T14:16:45.705Z,31.59
2017-05-11T14:17:58.249Z,30.71
2017-05-11T14:19:10.480Z,30.81
2017-05-11T14:20:23.066Z,30.91
2017-05-11T14:21:35.324Z,30.13
2017-05-11T14:22:47.882Z,30.03
2017-05-11T14:24:00.452Z,30.13
2017-05-11T14:25:12.979Z,30.42
2017-05-11T14:26:24.956Z,30.9
2017-05-11T14:27:37.226Z,31.87
2017-05-11T14:28:49.766Z,31.48
2017-05-11T14:30:02.332Z,31.66
2017-05-11T14:31:14.878Z,31.17
2017-05-11T14:32:27.127Z,30.68
2017-05-11T14:33:39.377Z,30.88
2017-05-11T14:34:51.919Z,31.64
2017-05-11T14:36:03.872Z,31.45
2017-05-11T14:37:16.140Z,31.74
2017-05-11T14:38:28.637Z,31.53
2017-05-11T14:39:41.204Z,32.02
2017-05-11T14:40:53.782Z,32.4
2017-05-11T14:42:06.346Z,33.73
2017-05-11T14:43:18.617Z,33.83
2017-05-11T14:44:31.186Z,33.53
2017-05-11T14:45:43.759Z,34.48
2017-05-11T14:46:56.351Z,34.46
2017-05-11T14:48:08.874Z,35.53
2017-05-11T14:49:21.148Z,35.11
2017-05-11T14:50:33.699Z,34.91
2017-05-11T14:51:45.949Z,35.67
2017-05-11T14:52:58.489Z,36.04
2017-05-11T14:54:10.435Z,36.43
2017-05-11T14:55:22.376Z,36.51
2017-05-11T14:56:34.968Z,36.7
2017-05-11T14:57:47.238Z,36.6
2017-05-11T14:58:59.797Z,36.98
2017-05-11T15:00:12.409Z,37.17
2017-05-11T15:01:24.659Z,39.28
2017-05-11T15:02:37.222Z,39.18
2017-05-11T15:03:49.767Z,39.64
2017-05-11T15:05:01.971Z,40.03
2017-05-11T15:06:14.492Z,40.11
2017-05-11T15:07:26.743Z,40.69
2017-05-11T15:08:39.301Z,41.15
2017-05-11T15:09:51.855Z,41.35
2017-05-11T15:11:04.397Z,40.94
2017-05-11T15:12:16.972Z,41.5
2017-05-11T15:13:29.522Z,42.18
2017-05-11T15:14:42.081Z,42.75
2017-05-11T15:15:54.637Z,42.94
2017-05-11T15:17:06.858Z,43.31
2017-05-11T15:18:19.105Z,43.21
2017-05-11T15:19:31.651Z,43.02
2017-05-11T15:20:44.215Z,44.18
2017-05-11T15:21:56.760Z,43.19
2017-05-11T15:23:09.011Z,43.38
2017-05-11T15:24:21.523Z,43.96
2017-05-11T15:25:33.755Z,43.94
2017-05-11T15:26:46.327Z,44.62
2017-05-11T15:27:58.869Z,45.2
2017-05-11T15:29:10.789Z,45
2017-05-11T15:30:23.332Z,45.48
2017-05-11T15:31:35.874Z,46.35
2017-05-11T15:32:48.373Z,44.89
2017-05-11T15:34:00.623Z,44.98
2017-05-11T15:35:13.186Z,45.65
2017-05-11T15:36:25.742Z,45.94